Time;durP1;ratioP1;P1;durP2;ratioP2;P2;SDS_P1;SDS_P2;PMS_P1;PMS_P2;Temp;Humidity;BMP_temperature;BMP_pressure;BME280_temperature;BME280_humidity;BME280_pressure;Samples;Min_cycle;Max_cycle;Signal;HPM_P1;HPM_P2
2022/11/11 00:00:02;;;;;;;19.83;8.73;;;;;;;;;;5024437;28;20049;-67
2022/11/11 00:02:28;;;;;;;21.05;8.00;;;;;;;;;;5038091;28;20073;-67
2022/11/11 00:04:54;;;;;;;20.52;8.43;;;;;;;;;;5054187;28;20069;-67
2022/11/11 00:07:20;;;;;;;22.10;8.60;;;;;;;;;;5042287;28;20125;-66
2022/11/11 00:09:46;;;;;;;22.55;9.35;;;;;;;;;;5043503;28;20055;-67
2022/11/11 00:12:13;;;;;;;18.95;8.80;;;;;;;;;;5041603;28;20068;-67
2022/11/11 00:14:39;;;;;;;20.73;9.60;;;;;;;;;;5043406;28;20408;-67
2022/11/11 00:25:33;;;;;;;22.83;9.63;;;;;;;;;;5039689;28;20077;-67
2022/11/11 00:27:59;;;;;;;31.45;10.93;;;;;;;;;;5070844;28;20068;-67
2022/11/11 00:30:25;;;;;;;21.27;9.55;;;;;;;;;;5039205;28;20041;-66
2022/11/11 00:32:51;;;;;;;18.63;10.93;;;;;;;;;;5034964;28;20057;-67
2022/11/11 00:38:08;;;;;;;23.27;10.48;;;;;;;;;;5055299;28;20056;-67
2022/11/11 00:40:34;;;;;;;21.80;11.20;;;;;;;;;;5038567;28;20044;-67
2022/11/11 00:43:00;;;;;;;25.88;11.05;;;;;;;;;;5038201;28;20045;-66
2022/11/11 00:45:26;;;;;;;17.27;10.05;;;;;;;;;;5040819;28;20116;-67
2022/11/11 00:53:23;;;;;;;20.95;10.88;;;;;;;;;;5034038;28;20939;-66
2022/11/11 00:55:49;;;;;;;21.40;10.50;;;;;;;;;;5065278;28;20041;-67
2022/11/11 00:58:16;;;;;;;25.42;11.75;;;;;;;;;;5068468;28;20045;-67
2022/11/11 01:00:43;;;;;;;22.27;11.10;;;;;;;;;;5037129;28;20088;-67
2022/11/11 01:03:09;;;;;;;25.23;11.07;;;;;;;;;;5039411;28;20033;-67
2022/11/11 01:05:37;;;;;;;22.85;11.18;;;;;;;;;;5032252;28;20058;-67
2022/11/11 01:08:03;;;;;;;22.00;11.70;;;;;;;;;;5042045;28;20397;-67
2022/11/11 01:10:40;;;;;;;22.23;11.52;;;;;;;;;;5038208;28;20106;-67
2022/11/11 01:13:12;;;;;;;24.20;12.60;;;;;;;;;;5039420;28;20140;-66
2022/11/11 01:15:39;;;;;;;28.30;12.52;;;;;;;;;;5040663;28;20401;-67
2022/11/11 01:18:06;;;;;;;22.20;12.30;;;;;;;;;;5038380;28;20481;-67
2022/11/11 01:20:32;;;;;;;19.48;11.35;;;;;;;;;;5034270;28;20498;-67
2022/11/11 01:22:58;;;;;;;23.40;12.32;;;;;;;;;;5039005;28;20493;-67
2022/11/11 01:25:24;;;;;;;31.17;11.82;;;;;;;;;;5040238;28;20048;-67
2022/11/11 01:27:50;;;;;;;19.45;11.10;;;;;;;;;;5039478;28;20045;-67
2022/11/11 01:30:17;;;;;;;24.88;13.05;;;;;;;;;;5038615;28;20756;-67
2022/11/11 01:32:43;;;;;;;26.02;13.35;;;;;;;;;;5033439;28;20053;-67
2022/11/11 01:35:09;;;;;;;26.88;13.13;;;;;;;;;;5069659;28;20477;-66
2022/11/11 01:37:35;;;;;;;24.58;11.98;;;;;;;;;;5035293;28;20044;-67
2022/11/11 01:40:02;;;;;;;25.00;13.02;;;;;;;;;;5036647;28;20049;-66
2022/11/11 01:42:28;;;;;;;23.15;12.00;;;;;;;;;;5038121;28;20045;-67
2022/11/11 01:44:54;;;;;;;23.73;12.40;;;;;;;;;;5034579;28;20980;-66
2022/11/11 01:47:21;;;;;;;21.20;12.13;;;;;;;;;;5041300;28;20103;-67
2022/11/11 01:49:55;;;;;;;25.17;12.18;;;;;;;;;;5037565;28;20465;-66
2022/11/11 01:52:25;;;;;;;26.83;12.35;;;;;;;;;;5036360;28;20041;-67
2022/11/11 01:54:53;;;;;;;29.00;12.95;;;;;;;;;;5070520;28;20127;-66
2022/11/11 01:57:31;;;;;;;20.77;13.48;;;;;;;;;;5037899;28;20045;-67
2022/11/11 02:00:00;;;;;;;23.13;12.20;;;;;;;;;;5054335;28;20063;-67
2022/11/11 02:02:31;;;;;;;29.45;12.95;;;;;;;;;;5033206;28;20209;-67
2022/11/11 02:07:42;;;;;;;24.63;13.05;;;;;;;;;;5039995;28;20073;-66
2022/11/11 02:10:08;;;;;;;27.02;13.60;;;;;;;;;;5035490;28;20041;-66
2022/11/11 02:15:19;;;;;;;24.83;12.98;;;;;;;;;;5035124;28;20037;-66
2022/11/11 02:17:47;;;;;;;26.17;13.98;;;;;;;;;;5037161;28;20365;-66
2022/11/11 02:20:15;;;;;;;21.98;13.32;;;;;;;;;;5035997;28;20045;-66
2022/11/11 02:22:41;;;;;;;24.52;13.77;;;;;;;;;;5040477;28;20416;-67
2022/11/11 02:25:09;;;;;;;21.90;13.65;;;;;;;;;;5038724;28;20079;-67
2022/11/11 02:27:37;;;;;;;28.27;15.05;;;;;;;;;;5033757;28;20049;-67
2022/11/11 02:30:05;;;;;;;31.65;15.48;;;;;;;;;;5039038;28;20040;-66
2022/11/11 02:32:31;;;;;;;30.85;15.93;;;;;;;;;;5054428;28;20099;-67
2022/11/11 02:34:57;;;;;;;26.77;17.00;;;;;;;;;;5034114;28;20094;-66
2022/11/11 02:37:24;;;;;;;27.48;16.42;;;;;;;;;;5034826;28;20550;-66
2022/11/11 02:39:52;;;;;;;26.45;16.70;;;;;;;;;;5033927;28;20129;-67
2022/11/11 02:42:19;;;;;;;25.40;16.83;;;;;;;;;;5040122;28;20392;-67
2022/11/11 02:44:45;;;;;;;29.25;17.80;;;;;;;;;;5040263;28;20053;-67
2022/11/11 02:47:11;;;;;;;31.77;18.30;;;;;;;;;;5044792;28;20045;-67
2022/11/11 02:49:37;;;;;;;35.47;19.05;;;;;;;;;;5072725;28;20084;-67
2022/11/11 02:52:04;;;;;;;34.00;19.05;;;;;;;;;;5044640;28;20048;-67
2022/11/11 02:54:30;;;;;;;35.38;19.02;;;;;;;;;;5047512;28;20059;-66
2022/11/11 02:57:06;;;;;;;38.45;19.88;;;;;;;;;;5045310;28;20147;-67
2022/11/11 02:59:33;;;;;;;35.30;19.55;;;;;;;;;;5041576;28;20053;-67
2022/11/11 03:01:59;;;;;;;31.83;19.08;;;;;;;;;;5042846;28;20049;-67
2022/11/11 03:04:25;;;;;;;40.63;19.73;;;;;;;;;;5036818;28;20049;-66
2022/11/11 03:06:51;;;;;;;33.78;19.75;;;;;;;;;;5036450;28;20050;-67
2022/11/11 03:09:17;;;;;;;36.15;19.65;;;;;;;;;;5039837;28;20045;-67
2022/11/11 03:11:43;;;;;;;36.45;19.63;;;;;;;;;;5039184;28;21883;-66
2022/11/11 03:14:10;;;;;;;32.45;20.48;;;;;;;;;;5043679;28;20041;-67
2022/11/11 03:19:21;;;;;;;32.08;19.75;;;;;;;;;;5072017;28;20037;-67
2022/11/11 03:21:47;;;;;;;31.50;18.83;;;;;;;;;;5041081;28;20052;-67
2022/11/11 03:24:13;;;;;;;34.17;20.48;;;;;;;;;;5039961;28;20037;-66
2022/11/11 03:26:39;;;;;;;40.60;20.45;;;;;;;;;;5038940;28;20045;-67
2022/11/11 03:29:05;;;;;;;39.70;22.60;;;;;;;;;;5044438;28;20052;-66
2022/11/11 03:31:32;;;;;;;36.05;22.73;;;;;;;;;;5038761;28;20570;-67
2022/11/11 03:39:30;;;;;;;42.75;23.30;;;;;;;;;;5040494;28;20477;-66
2022/11/11 03:41:56;;;;;;;34.75;22.13;;;;;;;;;;5038682;28;20060;-66
2022/11/11 03:44:23;;;;;;;37.80;23.20;;;;;;;;;;5042607;28;20037;-66
2022/11/11 03:46:49;;;;;;;35.25;22.48;;;;;;;;;;5037128;28;20052;-67
2022/11/11 03:49:15;;;;;;;39.70;24.42;;;;;;;;;;5043199;28;20041;-67
2022/11/11 03:51:41;;;;;;;41.20;25.40;;;;;;;;;;5042547;28;20052;-67
2022/11/11 03:54:07;;;;;;;39.15;25.27;;;;;;;;;;5040017;28;20033;-67
2022/11/11 03:56:33;;;;;;;43.17;25.73;;;;;;;;;;5036461;28;20060;-66
2022/11/11 03:58:59;;;;;;;44.70;28.08;;;;;;;;;;5039238;28;20049;-66
2022/11/11 04:12:26;;;;;;;53.35;30.15;;;;;;;;;;5069741;28;20576;-66
2022/11/11 04:17:37;;;;;;;49.72;30.45;;;;;;;;;;5067493;28;20049;-67
2022/11/11 04:22:48;;;;;;;47.47;30.52;;;;;;;;;;5038381;28;20120;-67
2022/11/11 04:30:44;;;;;;;46.03;31.38;;;;;;;;;;5037809;28;20053;-67
2022/11/11 04:33:10;;;;;;;46.72;30.35;;;;;;;;;;5038404;28;20040;-67
2022/11/11 04:35:36;;;;;;;49.22;30.02;;;;;;;;;;5041658;28;20468;-66
2022/11/11 04:41:03;;;;;;;54.22;31.88;;;;;;;;;;5039420;28;20121;-66
2022/11/11 04:43:29;;;;;;;49.90;29.45;;;;;;;;;;5037163;28;20116;-67
2022/11/11 04:46:01;;;;;;;47.03;30.13;;;;;;;;;;5042466;28;20040;-67
2022/11/11 04:48:28;;;;;;;52.63;31.77;;;;;;;;;;5039876;28;20068;-67
2022/11/11 04:50:54;;;;;;;52.55;31.73;;;;;;;;;;5041358;28;20431;-67
2022/11/11 04:53:20;;;;;;;51.72;32.22;;;;;;;;;;5041923;28;20036;-67
2022/11/11 04:58:33;;;;;;;57.40;33.20;;;;;;;;;;5035327;28;20049;-66
2022/11/11 05:00:59;;;;;;;55.28;33.28;;;;;;;;;;5040430;28;20057;-66
2022/11/11 05:03:26;;;;;;;52.72;33.83;;;;;;;;;;5042518;28;20094;-67
2022/11/11 05:08:54;;;;;;;57.05;34.00;;;;;;;;;;5039577;28;20365;-67
2022/11/11 05:11:23;;;;;;;54.03;33.88;;;;;;;;;;5038613;28;20110;-67
2022/11/11 05:22:12;;;;;;;60.50;34.78;;;;;;;;;;5039158;28;20049;-67
2022/11/11 05:27:23;;;;;;;49.40;32.58;;;;;;;;;;5038184;28;20447;-66
2022/11/11 05:29:49;;;;;;;56.78;33.10;;;;;;;;;;5038388;28;20044;-67
2022/11/11 05:32:16;;;;;;;54.58;32.78;;;;;;;;;;5040765;28;20044;-66
2022/11/11 05:34:42;;;;;;;59.35;33.08;;;;;;;;;;5037245;28;20055;-67
2022/11/11 05:37:08;;;;;;;57.15;32.05;;;;;;;;;;5035621;28;20591;-67
2022/11/11 05:39:34;;;;;;;56.60;32.30;;;;;;;;;;5037990;28;20060;-66
2022/11/11 05:42:00;;;;;;;55.65;31.70;;;;;;;;;;5041529;28;21586;-66
2022/11/11 05:44:27;;;;;;;60.28;33.22;;;;;;;;;;5040146;28;20041;-64
2022/11/11 05:46:53;;;;;;;52.67;31.50;;;;;;;;;;5035675;28;20051;-64
2022/11/11 05:49:19;;;;;;;53.78;31.52;;;;;;;;;;5044995;28;20112;-65
2022/11/11 05:51:46;;;;;;;52.83;31.13;;;;;;;;;;5040555;28;20575;-65
2022/11/11 05:54:12;;;;;;;56.75;33.17;;;;;;;;;;5035883;28;20041;-66
2022/11/11 05:56:38;;;;;;;54.60;33.65;;;;;;;;;;5034941;28;20048;-66
2022/11/11 05:59:05;;;;;;;57.15;32.10;;;;;;;;;;5041131;28;21045;-65
2022/11/11 06:01:31;;;;;;;56.97;32.50;;;;;;;;;;5042021;28;21100;-66
2022/11/11 06:03:57;;;;;;;53.65;33.08;;;;;;;;;;5038539;28;20127;-66
2022/11/11 06:06:23;;;;;;;58.70;33.20;;;;;;;;;;5039226;28;20410;-67
2022/11/11 06:08:50;;;;;;;53.97;31.85;;;;;;;;;;5041689;28;20033;-67
2022/11/11 06:11:16;;;;;;;58.30;33.47;;;;;;;;;;5041799;28;21760;-67
2022/11/11 06:13:42;;;;;;;52.50;33.25;;;;;;;;;;5037768;28;20049;-67
2022/11/11 06:16:08;;;;;;;56.55;33.20;;;;;;;;;;5042117;28;20037;-67
2022/11/11 06:18:35;;;;;;;56.40;31.67;;;;;;;;;;5040511;28;20049;-67
2022/11/11 06:21:01;;;;;;;59.53;32.63;;;;;;;;;;5038972;28;20940;-67
2022/11/11 06:23:28;;;;;;;59.10;32.50;;;;;;;;;;5038697;28;20132;-67
2022/11/11 06:28:41;;;;;;;54.83;31.27;;;;;;;;;;5040154;28;20069;-67
2022/11/11 06:31:08;;;;;;;52.10;31.95;;;;;;;;;;5038790;28;20052;-66
2022/11/11 06:33:34;;;;;;;56.25;32.10;;;;;;;;;;5044574;28;20353;-66
2022/11/11 06:36:01;;;;;;;56.78;30.80;;;;;;;;;;5045752;28;20351;-67
2022/11/11 06:38:27;;;;;;;56.47;30.55;;;;;;;;;;5044572;28;20052;-66
2022/11/11 06:40:53;;;;;;;50.70;30.30;;;;;;;;;;5047653;28;20060;-67
2022/11/11 06:43:19;;;;;;;49.60;29.40;;;;;;;;;;5043046;28;20102;-67
2022/11/11 06:45:45;;;;;;;54.10;30.50;;;;;;;;;;5039499;28;20051;-66
2022/11/11 06:48:12;;;;;;;54.38;30.77;;;;;;;;;;5076967;28;20076;-66
2022/11/11 06:50:38;;;;;;;49.47;27.90;;;;;;;;;;5046030;28;20087;-67
2022/11/11 06:53:09;;;;;;;49.03;30.17;;;;;;;;;;5045210;28;20451;-66
2022/11/11 06:55:35;;;;;;;53.53;29.80;;;;;;;;;;5044837;28;20049;-66
2022/11/11 06:58:08;;;;;;;57.95;31.27;;;;;;;;;;5048161;28;20052;-66
2022/11/11 07:00:35;;;;;;;50.50;31.77;;;;;;;;;;5046910;28;20481;-66
2022/11/11 07:03:03;;;;;;;52.97;31.75;;;;;;;;;;5042434;28;20041;-66
2022/11/11 07:05:29;;;;;;;54.40;31.65;;;;;;;;;;5038349;28;20056;-67
2022/11/11 07:07:55;;;;;;;52.13;30.35;;;;;;;;;;5044527;28;20131;-66
2022/11/11 07:10:22;;;;;;;54.35;30.27;;;;;;;;;;5046690;28;20033;-66
2022/11/11 07:12:48;;;;;;;52.83;31.13;;;;;;;;;;5037768;28;20052;-71
2022/11/11 07:15:14;;;;;;;56.30;32.90;;;;;;;;;;5046299;28;20083;-66
2022/11/11 07:17:41;;;;;;;58.47;32.25;;;;;;;;;;5040689;28;20392;-65
2022/11/11 07:20:07;;;;;;;50.92;30.88;;;;;;;;;;5045418;28;20048;-65
2022/11/11 07:22:37;;;;;;;51.03;32.97;;;;;;;;;;5040338;28;20056;-66
2022/11/11 07:25:03;;;;;;;51.63;31.60;;;;;;;;;;5076358;28;20067;-66
2022/11/11 07:27:29;;;;;;;47.72;30.45;;;;;;;;;;5044409;28;20076;-68
2022/11/11 07:29:55;;;;;;;54.53;31.70;;;;;;;;;;5048280;28;20052;-66
2022/11/11 07:32:22;;;;;;;46.65;30.58;;;;;;;;;;5044432;28;20388;-66
2022/11/11 07:34:49;;;;;;;46.45;30.02;;;;;;;;;;5046838;28;20069;-66
2022/11/11 07:37:15;;;;;;;51.38;29.80;;;;;;;;;;5043707;28;20053;-66
2022/11/11 07:39:41;;;;;;;53.75;30.50;;;;;;;;;;5051031;28;20049;-68
2022/11/11 07:42:08;;;;;;;49.42;28.70;;;;;;;;;;5083415;28;20049;-66
2022/11/11 07:44:34;;;;;;;52.78;31.58;;;;;;;;;;5050502;28;20442;-67
2022/11/11 07:47:00;;;;;;;51.53;30.80;;;;;;;;;;5050070;28;20045;-66
2022/11/11 07:49:26;;;;;;;47.22;31.20;;;;;;;;;;5049482;28;20396;-66
2022/11/11 07:51:52;;;;;;;56.10;29.73;;;;;;;;;;5049332;28;20055;-66
2022/11/11 07:54:18;;;;;;;45.03;30.50;;;;;;;;;;5048228;28;20125;-66
2022/11/11 07:56:44;;;;;;;49.20;29.90;;;;;;;;;;5048119;28;20056;-66
2022/11/11 07:59:11;;;;;;;51.95;30.55;;;;;;;;;;5047836;28;20135;-66
2022/11/11 08:01:37;;;;;;;52.30;31.63;;;;;;;;;;5051083;28;20068;-66
2022/11/11 08:04:03;;;;;;;54.50;30.38;;;;;;;;;;5047848;28;20029;-67
2022/11/11 08:06:29;;;;;;;50.10;31.30;;;;;;;;;;5047394;28;20408;-67
2022/11/11 08:08:55;;;;;;;44.85;29.95;;;;;;;;;;5049716;28;20106;-68
2022/11/11 08:14:06;;;;;;;57.03;32.25;;;;;;;;;;5079985;28;20056;-68
2022/11/11 08:16:33;;;;;;;53.40;31.83;;;;;;;;;;5047878;28;20760;-68
2022/11/11 08:18:59;;;;;;;59.15;31.45;;;;;;;;;;5047050;28;20401;-68
2022/11/11 08:21:25;;;;;;;55.55;33.28;;;;;;;;;;5047084;28;20170;-68
2022/11/11 08:23:52;;;;;;;54.33;32.03;;;;;;;;;;5048331;28;20433;-68
2022/11/11 08:26:18;;;;;;;54.50;31.65;;;;;;;;;;5045683;28;20183;-68
2022/11/11 08:28:45;;;;;;;45.10;29.52;;;;;;;;;;5041753;28;20061;-68
2022/11/11 08:31:11;;;;;;;54.80;31.65;;;;;;;;;;5048468;28;20052;-68
2022/11/11 08:33:37;;;;;;;59.50;32.60;;;;;;;;;;5042189;28;20485;-68
2022/11/11 08:36:04;;;;;;;55.22;31.67;;;;;;;;;;5046319;28;20128;-68
2022/11/11 08:38:31;;;;;;;52.72;31.90;;;;;;;;;;5050646;28;20504;-68
2022/11/11 08:41:01;;;;;;;59.92;34.72;;;;;;;;;;5061199;28;20504;-68
2022/11/11 08:43:31;;;;;;;52.42;33.13;;;;;;;;;;5043829;28;20079;-67
2022/11/11 08:45:58;;;;;;;54.45;32.75;;;;;;;;;;5044188;28;20037;-66
2022/11/11 08:48:24;;;;;;;54.70;31.35;;;;;;;;;;5074388;28;20405;-67
2022/11/11 08:50:51;;;;;;;51.63;31.70;;;;;;;;;;5078924;28;20124;-67
2022/11/11 08:53:17;;;;;;;47.67;29.77;;;;;;;;;;5046231;28;20400;-67
2022/11/11 08:55:43;;;;;;;56.35;34.00;;;;;;;;;;5045362;28;20181;-66
2022/11/11 08:58:10;;;;;;;51.17;32.75;;;;;;;;;;5047729;28;20053;-66
2022/11/11 09:00:36;;;;;;;54.50;33.08;;;;;;;;;;5061901;28;20157;-66
2022/11/11 09:03:03;;;;;;;51.97;30.33;;;;;;;;;;5044812;28;20064;-66
2022/11/11 09:05:29;;;;;;;52.33;33.00;;;;;;;;;;5041537;28;20094;-67
2022/11/11 09:07:55;;;;;;;50.13;30.60;;;;;;;;;;5042962;28;20083;-66
2022/11/11 09:10:22;;;;;;;50.95;31.48;;;;;;;;;;5047350;28;20577;-66
2022/11/11 09:12:48;;;;;;;61.95;33.30;;;;;;;;;;5046515;28;20045;-66
2022/11/11 09:15:14;;;;;;;55.80;34.03;;;;;;;;;;5044330;28;20045;-67
2022/11/11 09:17:46;;;;;;;53.00;32.10;;;;;;;;;;5046197;28;20484;-67
2022/11/11 09:20:12;;;;;;;58.05;32.83;;;;;;;;;;5049320;28;20119;-67
2022/11/11 09:22:42;;;;;;;50.67;33.33;;;;;;;;;;5043326;28;20053;-66
2022/11/11 09:25:09;;;;;;;52.85;32.15;;;;;;;;;;5050529;28;20075;-66
2022/11/11 09:27:35;;;;;;;53.30;31.35;;;;;;;;;;5041491;28;20044;-66
2022/11/11 09:30:01;;;;;;;58.65;32.75;;;;;;;;;;5049351;28;20041;-66
2022/11/11 09:32:27;;;;;;;55.10;31.67;;;;;;;;;;5050076;28;20458;-66
2022/11/11 09:34:55;;;;;;;55.30;31.90;;;;;;;;;;5047130;28;20037;-66
2022/11/11 09:37:21;;;;;;;59.85;31.10;;;;;;;;;;5043676;28;20404;-66
2022/11/11 09:39:47;;;;;;;54.75;31.98;;;;;;;;;;5045060;28;20072;-66
2022/11/11 09:42:16;;;;;;;59.88;32.38;;;;;;;;;;5049992;28;20052;-66
2022/11/11 09:44:44;;;;;;;57.72;33.33;;;;;;;;;;5043723;28;20044;-66
2022/11/11 09:47:17;;;;;;;51.70;32.08;;;;;;;;;;5043287;28;20514;-66
2022/11/11 09:49:58;;;;;;;51.97;33.22;;;;;;;;;;5038965;28;20076;-66
2022/11/11 09:52:28;;;;;;;52.25;31.63;;;;;;;;;;5045383;28;20456;-67
2022/11/11 09:54:59;;;;;;;47.58;32.13;;;;;;;;;;5044406;28;20037;-66
2022/11/11 09:57:34;;;;;;;58.03;32.88;;;;;;;;;;5045324;28;20053;-66
2022/11/11 10:00:01;;;;;;;51.30;32.40;;;;;;;;;;5043335;28;20506;-67
2022/11/11 10:02:28;;;;;;;52.63;32.58;;;;;;;;;;5079725;28;20087;-67
2022/11/11 10:04:55;;;;;;;50.33;32.17;;;;;;;;;;5041233;28;20131;-67
2022/11/11 10:07:25;;;;;;;47.22;31.88;;;;;;;;;;5047232;28;20045;-67
2022/11/11 10:09:56;;;;;;;50.55;32.45;;;;;;;;;;5045480;28;20072;-67
2022/11/11 10:12:35;;;;;;;48.35;29.77;;;;;;;;;;5046083;28;20554;-66
2022/11/11 10:15:03;;;;;;;44.63;31.35;;;;;;;;;;5046787;28;20044;-66
2022/11/11 10:17:37;;;;;;;47.10;29.92;;;;;;;;;;5039725;28;20206;-66
2022/11/11 10:20:13;;;;;;;49.75;32.13;;;;;;;;;;5045944;28;20558;-66
2022/11/11 10:22:41;;;;;;;47.80;31.60;;;;;;;;;;5046643;28;20055;-66
2022/11/11 10:25:11;;;;;;;45.90;31.05;;;;;;;;;;5046194;28;20087;-64
2022/11/11 10:27:40;;;;;;;51.08;32.83;;;;;;;;;;5043891;28;20067;-66
2022/11/11 10:30:20;;;;;;;48.25;31.48;;;;;;;;;;5047772;28;20045;-67
2022/11/11 10:32:49;;;;;;;47.83;31.02;;;;;;;;;;5043275;28;20491;-66
2022/11/11 10:35:17;;;;;;;51.05;32.22;;;;;;;;;;5043720;28;20041;-66
2022/11/11 10:37:44;;;;;;;47.60;30.08;;;;;;;;;;5039428;28;20106;-66
2022/11/11 10:40:21;;;;;;;51.88;30.55;;;;;;;;;;5037605;28;20033;-66
2022/11/11 10:42:47;;;;;;;49.67;29.98;;;;;;;;;;5039380;28;20051;-66
2022/11/11 10:45:21;;;;;;;52.60;32.15;;;;;;;;;;5042047;28;20045;-66
2022/11/11 10:47:53;;;;;;;46.88;31.75;;;;;;;;;;5045527;28;20055;-66
2022/11/11 10:50:23;;;;;;;44.65;30.83;;;;;;;;;;5044944;28;20068;-66
2022/11/11 10:52:54;;;;;;;47.40;30.30;;;;;;;;;;5046850;28;20400;-67
2022/11/11 10:55:24;;;;;;;45.90;29.55;;;;;;;;;;5044928;28;20041;-67
2022/11/11 10:58:01;;;;;;;47.08;29.85;;;;;;;;;;5077446;28;20049;-67
2022/11/11 11:00:27;;;;;;;46.97;29.45;;;;;;;;;;5045489;28;20056;-67
2022/11/11 11:03:09;;;;;;;43.53;28.85;;;;;;;;;;5043142;28;21340;-68
2022/11/11 11:05:38;;;;;;;48.78;29.95;;;;;;;;;;5046165;28;20175;-67
2022/11/11 11:08:07;;;;;;;44.65;28.48;;;;;;;;;;5048643;28;20044;-65
2022/11/11 11:10:37;;;;;;;41.47;28.20;;;;;;;;;;5049579;28;20049;-65
2022/11/11 11:13:06;;;;;;;43.78;29.27;;;;;;;;;;5049381;28;20045;-67
2022/11/11 11:15:35;;;;;;;44.08;28.98;;;;;;;;;;5048855;28;20067;-67
2022/11/11 11:18:04;;;;;;;43.33;29.60;;;;;;;;;;5048817;28;20055;-66
2022/11/11 11:20:30;;;;;;;41.00;28.08;;;;;;;;;;5047118;28;20055;-66
2022/11/11 11:23:00;;;;;;;40.75;26.90;;;;;;;;;;5045961;28;20604;-66
2022/11/11 11:25:28;;;;;;;37.83;26.58;;;;;;;;;;5047116;28;20377;-66
2022/11/11 11:28:04;;;;;;;41.17;26.88;;;;;;;;;;5048960;28;20047;-66
2022/11/11 11:30:30;;;;;;;43.30;28.10;;;;;;;;;;5046162;28;20040;-66
2022/11/11 11:32:58;;;;;;;48.22;29.20;;;;;;;;;;5046836;28;20140;-66
2022/11/11 11:35:31;;;;;;;46.20;27.75;;;;;;;;;;5048789;28;20262;-66
2022/11/11 11:37:58;;;;;;;44.08;28.95;;;;;;;;;;5045166;28;20040;-67
2022/11/11 11:40:24;;;;;;;48.53;28.58;;;;;;;;;;5046364;28;20052;-66
2022/11/11 11:42:50;;;;;;;45.50;29.80;;;;;;;;;;5048662;28;20048;-67
2022/11/11 11:45:16;;;;;;;46.33;28.48;;;;;;;;;;5045086;28;20044;-66
2022/11/11 11:47:58;;;;;;;41.58;27.90;;;;;;;;;;5049683;28;20048;-66
2022/11/11 11:50:34;;;;;;;47.22;29.08;;;;;;;;;;5042006;28;20053;-66
2022/11/11 11:53:08;;;;;;;42.70;28.20;;;;;;;;;;5051589;28;20037;-66
2022/11/11 11:55:37;;;;;;;43.42;28.08;;;;;;;;;;5081812;28;20072;-66
2022/11/11 11:58:20;;;;;;;44.05;28.10;;;;;;;;;;5050486;28;20049;-66
2022/11/11 12:00:54;;;;;;;44.75;28.05;;;;;;;;;;5048747;28;20430;-66
2022/11/11 12:03:33;;;;;;;42.13;28.25;;;;;;;;;;5046161;28;20108;-66
2022/11/11 12:06:06;;;;;;;41.50;28.35;;;;;;;;;;5046988;28;20041;-66
2022/11/11 12:08:33;;;;;;;43.93;28.53;;;;;;;;;;5046615;28;20135;-66
2022/11/11 12:10:59;;;;;;;43.13;27.95;;;;;;;;;;5049179;28;20045;-66
2022/11/11 12:13:34;;;;;;;41.47;28.00;;;;;;;;;;5083125;28;20510;-66
2022/11/11 12:16:12;;;;;;;46.45;28.80;;;;;;;;;;5044960;28;20112;-66
2022/11/11 12:18:38;;;;;;;45.20;29.23;;;;;;;;;;5048946;28;20136;-66
2022/11/11 12:21:11;;;;;;;45.20;29.02;;;;;;;;;;5044845;28;20132;-66
2022/11/11 12:23:40;;;;;;;42.70;27.08;;;;;;;;;;5051037;28;20133;-66
2022/11/11 12:26:08;;;;;;;44.80;28.88;;;;;;;;;;5047416;28;20052;-66
2022/11/11 12:28:49;;;;;;;44.65;29.02;;;;;;;;;;5042050;28;20049;-66
2022/11/11 12:31:29;;;;;;;45.65;29.80;;;;;;;;;;5048327;28;20354;-66
2022/11/11 12:34:02;;;;;;;45.03;28.15;;;;;;;;;;5048880;28;20037;-66
2022/11/11 12:36:34;;;;;;;45.33;29.33;;;;;;;;;;5049010;28;20164;-66
2022/11/11 12:39:02;;;;;;;45.17;30.08;;;;;;;;;;5044050;28;20461;-66
2022/11/11 12:41:28;;;;;;;43.85;28.35;;;;;;;;;;5075869;28;20037;-66
2022/11/11 12:43:58;;;;;;;46.38;29.13;;;;;;;;;;5076738;28;20119;-66
2022/11/11 12:46:33;;;;;;;41.65;28.60;;;;;;;;;;5042627;28;20183;-66
2022/11/11 12:49:05;;;;;;;49.78;28.90;;;;;;;;;;5047508;28;20081;-66
2022/11/11 12:51:37;;;;;;;47.00;29.27;;;;;;;;;;5044574;28;20044;-66
2022/11/11 12:54:13;;;;;;;50.50;29.90;;;;;;;;;;5045692;28;20144;-66
2022/11/11 12:56:43;;;;;;;47.05;27.88;;;;;;;;;;5047365;28;20052;-66
2022/11/11 12:59:23;;;;;;;44.08;27.80;;;;;;;;;;5044407;28;20443;-66
2022/11/11 13:01:54;;;;;;;49.25;27.98;;;;;;;;;;5048488;28;20122;-65
2022/11/11 13:04:28;;;;;;;47.10;27.90;;;;;;;;;;5042649;28;20045;-66
2022/11/11 13:07:01;;;;;;;39.03;26.48;;;;;;;;;;5046612;28;20055;-66
2022/11/11 13:09:33;;;;;;;41.97;28.27;;;;;;;;;;5034507;28;20490;-66
2022/11/11 13:12:06;;;;;;;40.63;26.50;;;;;;;;;;5042778;28;20064;-65
2022/11/11 13:14:40;;;;;;;41.38;27.00;;;;;;;;;;5068871;28;20173;-65
2022/11/11 13:17:11;;;;;;;39.03;25.08;;;;;;;;;;5035146;28;20045;-65
2022/11/11 13:19:40;;;;;;;38.28;26.67;;;;;;;;;;5037752;28;20049;-66
2022/11/11 13:22:12;;;;;;;44.08;26.90;;;;;;;;;;5072474;28;20125;-64
2022/11/11 13:24:38;;;;;;;36.83;25.95;;;;;;;;;;5042333;28;20065;-64
2022/11/11 13:27:07;;;;;;;45.85;29.40;;;;;;;;;;5043276;28;20480;-64
2022/11/11 13:29:49;;;;;;;44.55;27.85;;;;;;;;;;5041105;28;20051;-64
2022/11/11 13:32:17;;;;;;;44.08;28.35;;;;;;;;;;5070126;28;20057;-64
2022/11/11 13:34:44;;;;;;;40.22;26.23;;;;;;;;;;5044323;28;20040;-64
2022/11/11 13:37:19;;;;;;;42.35;26.85;;;;;;;;;;5040580;28;20130;-64
2022/11/11 13:39:46;;;;;;;46.33;28.52;;;;;;;;;;5043572;28;20452;-65
2022/11/11 13:42:18;;;;;;;42.60;27.10;;;;;;;;;;5039453;28;20049;-65
2022/11/11 13:44:46;;;;;;;38.92;26.48;;;;;;;;;;5043494;28;20126;-65
2022/11/11 13:47:14;;;;;;;44.40;29.23;;;;;;;;;;5069913;28;20048;-65
2022/11/11 13:49:44;;;;;;;54.05;29.50;;;;;;;;;;5043039;28;20128;-66
2022/11/11 13:52:28;;;;;;;37.33;27.00;;;;;;;;;;5040426;28;20052;-65
2022/11/11 13:55:00;;;;;;;41.45;28.27;;;;;;;;;;5040426;28;20131;-66
2022/11/11 13:57:30;;;;;;;39.80;26.63;;;;;;;;;;5042780;28;20098;-66
2022/11/11 14:00:15;;;;;;;51.28;27.30;;;;;;;;;;5035719;28;20101;-75
2022/11/11 14:02:42;;;;;;;44.95;26.42;;;;;;;;;;5034234;28;20489;-67
2022/11/11 14:05:08;;;;;;;35.33;24.33;;;;;;;;;;5038190;28;20049;-67
2022/11/11 14:07:43;;;;;;;34.33;24.25;;;;;;;;;;5036696;28;20445;-67
2022/11/11 14:10:10;;;;;;;35.42;24.48;;;;;;;;;;5039858;28;20118;-67
2022/11/11 14:12:38;;;;;;;34.47;24.45;;;;;;;;;;5041302;28;20044;-67
2022/11/11 14:15:07;;;;;;;35.13;23.90;;;;;;;;;;5043883;28;20068;-67
2022/11/11 14:17:34;;;;;;;35.53;24.70;;;;;;;;;;5036906;28;20190;-66
2022/11/11 14:20:20;;;;;;;33.08;23.77;;;;;;;;;;5039744;28;20048;-66
2022/11/11 14:22:46;;;;;;;37.58;25.00;;;;;;;;;;5033573;28;20120;-66
2022/11/11 14:25:20;;;;;;;34.60;23.90;;;;;;;;;;5040049;28;20127;-66
2022/11/11 14:27:46;;;;;;;41.47;24.75;;;;;;;;;;5037406;28;20047;-66
2022/11/11 14:30:27;;;;;;;43.72;25.23;;;;;;;;;;5066457;28;20060;-66
2022/11/11 14:32:58;;;;;;;33.42;24.50;;;;;;;;;;5063613;28;20067;-66
2022/11/11 14:35:28;;;;;;;39.63;24.88;;;;;;;;;;5035692;28;20449;-66
2022/11/11 14:37:56;;;;;;;39.47;26.42;;;;;;;;;;5036806;28;20055;-66
2022/11/11 14:40:24;;;;;;;41.20;27.92;;;;;;;;;;5033801;28;20084;-66
2022/11/11 14:42:51;;;;;;;39.83;25.00;;;;;;;;;;5036934;28;20049;-65
2022/11/11 14:45:24;;;;;;;40.33;26.83;;;;;;;;;;5038328;28;20045;-66
2022/11/11 14:47:51;;;;;;;39.95;26.67;;;;;;;;;;5037617;28;20148;-66
2022/11/11 14:50:40;;;;;;;37.53;24.63;;;;;;;;;;5068513;28;20045;-66
2022/11/11 14:53:18;;;;;;;41.78;26.60;;;;;;;;;;5035617;28;20672;-66
2022/11/11 14:55:50;;;;;;;40.00;26.60;;;;;;;;;;5038965;28;20139;-66
2022/11/11 14:58:18;;;;;;;34.83;24.52;;;;;;;;;;5031379;28;1143173;-66
2022/11/11 15:00:53;;;;;;;42.00;26.00;;;;;;;;;;5036503;28;20068;-66
2022/11/11 15:03:37;;;;;;;37.20;25.48;;;;;;;;;;5037675;28;20504;-66
2022/11/11 15:06:06;;;;;;;40.00;27.00;;;;;;;;;;5037296;28;20041;-67
2022/11/11 15:08:41;;;;;;;37.85;25.63;;;;;;;;;;5036089;28;20037;-66
2022/11/11 15:11:21;;;;;;;36.65;24.23;;;;;;;;;;5073199;28;20102;-66
2022/11/11 15:13:59;;;;;;;40.55;26.35;;;;;;;;;;5038905;28;20068;-66
2022/11/11 15:16:49;;;;;;;44.22;27.08;;;;;;;;;;5037473;28;20046;-66
2022/11/11 15:19:24;;;;;;;42.95;27.23;;;;;;;;;;5037479;28;20496;-66
2022/11/11 15:22:09;;;;;;;36.30;24.52;;;;;;;;;;5039007;28;20396;-66
2022/11/11 15:24:42;;;;;;;39.42;25.35;;;;;;;;;;5039146;28;20148;-66
2022/11/11 15:27:18;;;;;;;35.05;24.35;;;;;;;;;;5038986;28;20056;-66
2022/11/11 15:30:10;;;;;;;35.22;25.30;;;;;;;;;;5036898;28;20140;-66
2022/11/11 15:32:46;;;;;;;41.25;26.33;;;;;;;;;;5068578;28;20045;-66
2022/11/11 15:35:22;;;;;;;38.70;25.70;;;;;;;;;;5035456;28;20056;-66
2022/11/11 15:37:52;;;;;;;34.70;24.80;;;;;;;;;;5038436;28;20073;-65
2022/11/11 15:40:19;;;;;;;36.85;23.92;;;;;;;;;;5036571;28;20065;-72
2022/11/11 15:42:46;;;;;;;35.47;23.17;;;;;;;;;;5052681;28;20072;-65